sensor_id;sensor_type;location;lat;lon;timestamp;P1;durP1;ratioP1;P2;durP2;ratioP2
61200;SDS011;47065;52.898;6.992;2023-06-22T00:01:27;38.28;;;29.23;;
61200;SDS011;47065;52.898;6.992;2023-06-22T00:03:53;36.65;;;27.42;;
61200;SDS011;47065;52.898;6.992;2023-06-22T00:06:19;35.05;;;27.35;;
61200;SDS011;47065;52.898;6.992;2023-06-22T00:08:44;33.53;;;26.55;;
61200;SDS011;47065;52.898;6.992;2023-06-22T00:11:11;31.63;;;26.05;;
61200;SDS011;47065;52.898;6.992;2023-06-22T00:13:37;38.53;;;29.05;;
61200;SDS011;47065;52.898;6.992;2023-06-22T00:16:03;29.88;;;26.27;;
61200;SDS011;47065;52.898;6.992;2023-06-22T00:18:29;32.28;;;26.05;;
61200;SDS011;47065;52.898;6.992;2023-06-22T00:20:55;37.22;;;29.30;;
61200;SDS011;47065;52.898;6.992;2023-06-22T00:23:24;36.15;;;28.35;;
61200;SDS011;47065;52.898;6.992;2023-06-22T00:25:50;39.13;;;31.50;;
61200;SDS011;47065;52.898;6.992;2023-06-22T00:28:16;40.83;;;28.52;;
61200;SDS011;47065;52.898;6.992;2023-06-22T00:30:42;36.42;;;28.98;;
61200;SDS011;47065;52.898;6.992;2023-06-22T00:33:08;40.30;;;29.88;;
61200;SDS011;47065;52.898;6.992;2023-06-22T00:35:33;35.90;;;27.35;;
61200;SDS011;47065;52.898;6.992;2023-06-22T00:37:59;37.10;;;29.23;;
61200;SDS011;47065;52.898;6.992;2023-06-22T00:40:35;33.22;;;26.60;;
61200;SDS011;47065;52.898;6.992;2023-06-22T00:43:01;41.92;;;30.10;;
61200;SDS011;47065;52.898;6.992;2023-06-22T00:45:27;31.05;;;26.35;;
61200;SDS011;47065;52.898;6.992;2023-06-22T00:47:53;29.08;;;25.85;;
61200;SDS011;47065;52.898;6.992;2023-06-22T00:50:23;30.92;;;24.38;;
61200;SDS011;47065;52.898;6.992;2023-06-22T00:52:56;35.65;;;26.80;;
61200;SDS011;47065;52.898;6.992;2023-06-22T00:55:23;30.63;;;26.30;;
61200;SDS011;47065;52.898;6.992;2023-06-22T00:57:51;35.83;;;28.05;;
61200;SDS011;47065;52.898;6.992;2023-06-22T01:00:20;35.20;;;28.80;;
61200;SDS011;47065;52.898;6.992;2023-06-22T01:02:49;42.40;;;31.45;;
61200;SDS011;47065;52.898;6.992;2023-06-22T01:05:18;39.53;;;29.08;;
61200;SDS011;47065;52.898;6.992;2023-06-22T01:13:07;50.38;;;35.65;;
61200;SDS011;47065;52.898;6.992;2023-06-22T01:16:02;47.33;;;36.90;;
61200;SDS011;47065;52.898;6.992;2023-06-22T01:18:31;47.03;;;36.45;;
61200;SDS011;47065;52.898;6.992;2023-06-22T01:21:01;48.30;;;37.95;;
61200;SDS011;47065;52.898;6.992;2023-06-22T01:23:36;46.30;;;35.83;;
61200;SDS011;47065;52.898;6.992;2023-06-22T01:29:08;46.07;;;34.33;;
61200;SDS011;47065;52.898;6.992;2023-06-22T01:31:38;41.65;;;34.97;;
61200;SDS011;47065;52.898;6.992;2023-06-22T01:34:06;49.47;;;36.85;;
61200;SDS011;47065;52.898;6.992;2023-06-22T01:36:34;38.28;;;29.67;;
61200;SDS011;47065;52.898;6.992;2023-06-22T01:39:02;34.05;;;27.85;;
61200;SDS011;47065;52.898;6.992;2023-06-22T01:41:30;32.97;;;25.90;;
61200;SDS011;47065;52.898;6.992;2023-06-22T01:43:59;28.63;;;24.70;;
61200;SDS011;47065;52.898;6.992;2023-06-22T01:46:26;40.92;;;31.92;;
61200;SDS011;47065;52.898;6.992;2023-06-22T01:48:51;40.80;;;31.48;;
61200;SDS011;47065;52.898;6.992;2023-06-22T01:51:18;37.63;;;30.77;;
61200;SDS011;47065;52.898;6.992;2023-06-22T01:53:44;38.45;;;30.95;;
61200;SDS011;47065;52.898;6.992;2023-06-22T01:56:10;43.88;;;35.00;;
61200;SDS011;47065;52.898;6.992;2023-06-22T01:58:37;45.67;;;34.30;;
61200;SDS011;47065;52.898;6.992;2023-06-22T02:01:09;51.83;;;34.83;;
61200;SDS011;47065;52.898;6.992;2023-06-22T02:03:41;44.58;;;33.65;;
61200;SDS011;47065;52.898;6.992;2023-06-22T02:06:21;44.38;;;32.95;;
61200;SDS011;47065;52.898;6.992;2023-06-22T02:08:54;39.33;;;31.10;;
61200;SDS011;47065;52.898;6.992;2023-06-22T02:11:24;33.05;;;28.60;;
61200;SDS011;47065;52.898;6.992;2023-06-22T02:13:53;36.60;;;29.60;;
61200;SDS011;47065;52.898;6.992;2023-06-22T02:16:20;40.92;;;31.05;;
61200;SDS011;47065;52.898;6.992;2023-06-22T02:18:47;43.45;;;31.08;;
61200;SDS011;47065;52.898;6.992;2023-06-22T02:21:15;43.63;;;33.72;;
61200;SDS011;47065;52.898;6.992;2023-06-22T02:23:44;48.05;;;36.00;;
61200;SDS011;47065;52.898;6.992;2023-06-22T02:26:10;43.35;;;34.60;;
61200;SDS011;47065;52.898;6.992;2023-06-22T02:28:35;41.22;;;33.78;;
61200;SDS011;47065;52.898;6.992;2023-06-22T02:31:01;38.83;;;30.92;;
61200;SDS011;47065;52.898;6.992;2023-06-22T02:33:27;34.58;;;27.70;;
61200;SDS011;47065;52.898;6.992;2023-06-22T02:35:52;32.42;;;25.77;;
61200;SDS011;47065;52.898;6.992;2023-06-22T02:38:18;26.02;;;23.23;;
61200;SDS011;47065;52.898;6.992;2023-06-22T02:40:45;19.42;;;17.63;;
61200;SDS011;47065;52.898;6.992;2023-06-22T02:43:11;18.98;;;17.17;;
61200;SDS011;47065;52.898;6.992;2023-06-22T02:45:37;24.63;;;20.38;;
61200;SDS011;47065;52.898;6.992;2023-06-22T02:48:02;27.48;;;20.70;;
61200;SDS011;47065;52.898;6.992;2023-06-22T02:50:28;19.98;;;17.38;;
61200;SDS011;47065;52.898;6.992;2023-06-22T02:52:54;21.85;;;19.55;;
61200;SDS011;47065;52.898;6.992;2023-06-22T02:55:20;22.45;;;20.08;;
61200;SDS011;47065;52.898;6.992;2023-06-22T02:57:45;24.77;;;22.10;;
61200;SDS011;47065;52.898;6.992;2023-06-22T03:00:13;29.13;;;25.98;;
61200;SDS011;47065;52.898;6.992;2023-06-22T03:02:43;31.33;;;27.35;;
61200;SDS011;47065;52.898;6.992;2023-06-22T03:05:10;25.80;;;23.05;;
61200;SDS011;47065;52.898;6.992;2023-06-22T03:07:41;25.92;;;23.33;;
61200;SDS011;47065;52.898;6.992;2023-06-22T03:10:10;24.25;;;21.83;;
61200;SDS011;47065;52.898;6.992;2023-06-22T03:12:37;23.17;;;20.73;;
61200;SDS011;47065;52.898;6.992;2023-06-22T03:15:06;20.10;;;18.05;;
61200;SDS011;47065;52.898;6.992;2023-06-22T03:17:33;19.90;;;18.00;;
61200;SDS011;47065;52.898;6.992;2023-06-22T03:20:00;17.67;;;16.08;;
61200;SDS011;47065;52.898;6.992;2023-06-22T03:22:26;25.92;;;22.63;;
61200;SDS011;47065;52.898;6.992;2023-06-22T03:24:52;31.88;;;26.20;;
61200;SDS011;47065;52.898;6.992;2023-06-22T03:27:17;52.67;;;26.38;;
61200;SDS011;47065;52.898;6.992;2023-06-22T03:29:43;26.48;;;23.58;;
61200;SDS011;47065;52.898;6.992;2023-06-22T03:32:09;30.42;;;25.50;;
61200;SDS011;47065;52.898;6.992;2023-06-22T03:34:35;34.63;;;27.02;;
61200;SDS011;47065;52.898;6.992;2023-06-22T03:37:01;37.58;;;31.85;;
61200;SDS011;47065;52.898;6.992;2023-06-22T03:39:28;41.47;;;31.65;;
61200;SDS011;47065;52.898;6.992;2023-06-22T03:41:53;39.58;;;33.20;;
61200;SDS011;47065;52.898;6.992;2023-06-22T03:44:19;44.03;;;33.40;;
61200;SDS011;47065;52.898;6.992;2023-06-22T03:46:45;42.53;;;34.58;;
61200;SDS011;47065;52.898;6.992;2023-06-22T03:49:10;44.83;;;37.47;;
61200;SDS011;47065;52.898;6.992;2023-06-22T03:51:36;54.65;;;39.65;;
61200;SDS011;47065;52.898;6.992;2023-06-22T03:54:02;49.17;;;38.22;;
61200;SDS011;47065;52.898;6.992;2023-06-22T03:56:27;43.00;;;37.20;;
61200;SDS011;47065;52.898;6.992;2023-06-22T03:58:53;45.55;;;37.33;;
61200;SDS011;47065;52.898;6.992;2023-06-22T04:01:19;40.42;;;34.45;;
61200;SDS011;47065;52.898;6.992;2023-06-22T04:03:44;32.55;;;29.25;;
61200;SDS011;47065;52.898;6.992;2023-06-22T04:06:13;34.67;;;30.98;;
61200;SDS011;47065;52.898;6.992;2023-06-22T04:08:38;49.42;;;38.25;;
61200;SDS011;47065;52.898;6.992;2023-06-22T04:11:04;46.20;;;36.42;;
61200;SDS011;47065;52.898;6.992;2023-06-22T04:13:30;46.63;;;36.50;;
61200;SDS011;47065;52.898;6.992;2023-06-22T04:15:55;45.30;;;37.58;;
61200;SDS011;47065;52.898;6.992;2023-06-22T04:18:21;57.17;;;43.67;;
61200;SDS011;47065;52.898;6.992;2023-06-22T04:20:47;65.78;;;47.53;;
61200;SDS011;47065;52.898;6.992;2023-06-22T04:23:13;74.82;;;53.75;;
61200;SDS011;47065;52.898;6.992;2023-06-22T04:25:39;72.53;;;50.33;;
61200;SDS011;47065;52.898;6.992;2023-06-22T04:28:04;66.60;;;47.05;;
61200;SDS011;47065;52.898;6.992;2023-06-22T04:30:32;72.15;;;50.20;;
61200;SDS011;47065;52.898;6.992;2023-06-22T04:32:58;65.25;;;44.67;;
61200;SDS011;47065;52.898;6.992;2023-06-22T04:35:24;68.40;;;50.38;;
61200;SDS011;47065;52.898;6.992;2023-06-22T04:37:52;67.88;;;48.13;;
61200;SDS011;47065;52.898;6.992;2023-06-22T04:40:20;73.20;;;50.75;;
61200;SDS011;47065;52.898;6.992;2023-06-22T04:42:47;70.13;;;50.88;;
61200;SDS011;47065;52.898;6.992;2023-06-22T04:45:18;75.05;;;52.40;;
61200;SDS011;47065;52.898;6.992;2023-06-22T04:47:44;73.72;;;53.92;;
61200;SDS011;47065;52.898;6.992;2023-06-22T04:50:11;81.90;;;55.92;;
61200;SDS011;47065;52.898;6.992;2023-06-22T04:52:37;77.75;;;53.80;;
61200;SDS011;47065;52.898;6.992;2023-06-22T04:55:03;78.93;;;54.72;;
61200;SDS011;47065;52.898;6.992;2023-06-22T04:57:29;73.30;;;51.55;;
61200;SDS011;47065;52.898;6.992;2023-06-22T04:59:58;73.05;;;53.28;;
61200;SDS011;47065;52.898;6.992;2023-06-22T05:02:36;77.00;;;53.47;;
61200;SDS011;47065;52.898;6.992;2023-06-22T05:05:04;77.93;;;54.85;;
61200;SDS011;47065;52.898;6.992;2023-06-22T05:07:35;89.05;;;58.08;;
61200;SDS011;47065;52.898;6.992;2023-06-22T05:10:01;86.43;;;58.67;;
61200;SDS011;47065;52.898;6.992;2023-06-22T05:12:28;76.65;;;53.50;;
61200;SDS011;47065;52.898;6.992;2023-06-22T05:14:54;75.72;;;52.35;;
61200;SDS011;47065;52.898;6.992;2023-06-22T05:17:20;92.35;;;58.33;;
61200;SDS011;47065;52.898;6.992;2023-06-22T05:19:46;75.80;;;54.58;;
61200;SDS011;47065;52.898;6.992;2023-06-22T05:22:16;83.15;;;58.10;;
61200;SDS011;47065;52.898;6.992;2023-06-22T05:24:42;91.63;;;59.83;;
61200;SDS011;47065;52.898;6.992;2023-06-22T05:27:08;85.30;;;56.97;;
61200;SDS011;47065;52.898;6.992;2023-06-22T05:29:35;79.20;;;55.05;;
61200;SDS011;47065;52.898;6.992;2023-06-22T05:32:01;76.72;;;53.75;;
61200;SDS011;47065;52.898;6.992;2023-06-22T05:34:28;82.88;;;55.92;;
61200;SDS011;47065;52.898;6.992;2023-06-22T05:36:53;70.00;;;47.92;;
61200;SDS011;47065;52.898;6.992;2023-06-22T05:39:19;67.93;;;50.95;;
61200;SDS011;47065;52.898;6.992;2023-06-22T05:41:45;65.57;;;47.88;;
61200;SDS011;47065;52.898;6.992;2023-06-22T05:44:11;64.53;;;48.78;;
61200;SDS011;47065;52.898;6.992;2023-06-22T05:46:40;65.25;;;49.95;;
61200;SDS011;47065;52.898;6.992;2023-06-22T05:49:09;73.03;;;49.45;;
61200;SDS011;47065;52.898;6.992;2023-06-22T05:51:36;60.83;;;45.28;;
61200;SDS011;47065;52.898;6.992;2023-06-22T05:54:02;72.30;;;50.40;;
61200;SDS011;47065;52.898;6.992;2023-06-22T05:56:27;54.75;;;42.30;;
61200;SDS011;47065;52.898;6.992;2023-06-22T05:58:53;64.20;;;46.70;;
61200;SDS011;47065;52.898;6.992;2023-06-22T06:01:19;59.63;;;43.88;;
61200;SDS011;47065;52.898;6.992;2023-06-22T06:03:45;57.22;;;45.05;;
61200;SDS011;47065;52.898;6.992;2023-06-22T06:06:11;52.17;;;41.15;;
61200;SDS011;47065;52.898;6.992;2023-06-22T06:08:37;53.90;;;43.10;;
61200;SDS011;47065;52.898;6.992;2023-06-22T06:11:03;53.03;;;40.92;;
61200;SDS011;47065;52.898;6.992;2023-06-22T06:13:29;52.80;;;39.17;;
61200;SDS011;47065;52.898;6.992;2023-06-22T06:15:55;43.92;;;36.58;;
61200;SDS011;47065;52.898;6.992;2023-06-22T06:18:22;49.78;;;37.83;;
61200;SDS011;47065;52.898;6.992;2023-06-22T06:20:47;45.35;;;35.38;;
61200;SDS011;47065;52.898;6.992;2023-06-22T06:23:13;51.30;;;38.30;;
61200;SDS011;47065;52.898;6.992;2023-06-22T06:25:39;47.20;;;34.13;;
61200;SDS011;47065;52.898;6.992;2023-06-22T06:28:05;44.78;;;34.58;;
61200;SDS011;47065;52.898;6.992;2023-06-22T06:30:30;45.22;;;33.47;;
61200;SDS011;47065;52.898;6.992;2023-06-22T06:32:56;37.03;;;31.95;;
61200;SDS011;47065;52.898;6.992;2023-06-22T06:35:22;34.58;;;30.45;;
61200;SDS011;47065;52.898;6.992;2023-06-22T06:37:48;33.28;;;27.52;;
61200;SDS011;47065;52.898;6.992;2023-06-22T06:40:15;32.13;;;27.60;;
61200;SDS011;47065;52.898;6.992;2023-06-22T06:42:43;29.90;;;26.55;;
61200;SDS011;47065;52.898;6.992;2023-06-22T06:45:11;28.85;;;23.88;;
61200;SDS011;47065;52.898;6.992;2023-06-22T06:47:38;34.22;;;24.70;;
61200;SDS011;47065;52.898;6.992;2023-06-22T06:50:05;27.27;;;22.35;;
61200;SDS011;47065;52.898;6.992;2023-06-22T06:52:31;23.42;;;20.83;;
61200;SDS011;47065;52.898;6.992;2023-06-22T06:54:58;23.55;;;21.02;;
61200;SDS011;47065;52.898;6.992;2023-06-22T06:57:24;23.92;;;20.33;;
61200;SDS011;47065;52.898;6.992;2023-06-22T06:59:53;20.10;;;17.95;;
61200;SDS011;47065;52.898;6.992;2023-06-22T07:02:22;16.90;;;15.10;;
61200;SDS011;47065;52.898;6.992;2023-06-22T07:04:49;18.17;;;15.18;;
61200;SDS011;47065;52.898;6.992;2023-06-22T07:07:14;22.92;;;18.52;;
61200;SDS011;47065;52.898;6.992;2023-06-22T07:09:42;19.35;;;16.75;;
61200;SDS011;47065;52.898;6.992;2023-06-22T07:12:07;17.42;;;15.63;;
61200;SDS011;47065;52.898;6.992;2023-06-22T07:14:33;17.35;;;15.15;;
61200;SDS011;47065;52.898;6.992;2023-06-22T07:16:59;18.23;;;16.30;;
61200;SDS011;47065;52.898;6.992;2023-06-22T07:19:25;19.13;;;15.93;;
61200;SDS011;47065;52.898;6.992;2023-06-22T07:21:55;16.90;;;14.57;;
61200;SDS011;47065;52.898;6.992;2023-06-22T07:24:28;15.52;;;13.90;;
61200;SDS011;47065;52.898;6.992;2023-06-22T07:27:00;15.60;;;13.82;;
61200;SDS011;47065;52.898;6.992;2023-06-22T07:29:31;15.93;;;13.23;;
61200;SDS011;47065;52.898;6.992;2023-06-22T07:32:06;15.73;;;13.25;;
61200;SDS011;47065;52.898;6.992;2023-06-22T07:34:41;13.52;;;11.25;;
61200;SDS011;47065;52.898;6.992;2023-06-22T07:37:09;12.55;;;9.50;;
61200;SDS011;47065;52.898;6.992;2023-06-22T07:39:35;9.82;;;8.18;;
61200;SDS011;47065;52.898;6.992;2023-06-22T07:42:02;11.02;;;8.48;;
61200;SDS011;47065;52.898;6.992;2023-06-22T07:44:36;9.70;;;8.43;;
61200;SDS011;47065;52.898;6.992;2023-06-22T07:47:13;11.02;;;7.97;;
61200;SDS011;47065;52.898;6.992;2023-06-22T07:49:39;8.65;;;7.72;;
61200;SDS011;47065;52.898;6.992;2023-06-22T07:52:05;9.52;;;6.88;;
61200;SDS011;47065;52.898;6.992;2023-06-22T07:54:31;9.40;;;7.72;;
61200;SDS011;47065;52.898;6.992;2023-06-22T07:57:00;7.97;;;6.93;;
61200;SDS011;47065;52.898;6.992;2023-06-22T07:59:41;8.15;;;6.47;;
61200;SDS011;47065;52.898;6.992;2023-06-22T08:02:12;7.57;;;5.65;;
61200;SDS011;47065;52.898;6.992;2023-06-22T08:04:38;7.30;;;6.60;;
61200;SDS011;47065;52.898;6.992;2023-06-22T08:07:05;8.25;;;7.32;;
61200;SDS011;47065;52.898;6.992;2023-06-22T08:09:38;7.93;;;7.07;;
61200;SDS011;47065;52.898;6.992;2023-06-22T08:12:13;11.23;;;6.40;;
61200;SDS011;47065;52.898;6.992;2023-06-22T08:14:39;10.90;;;6.82;;
61200;SDS011;47065;52.898;6.992;2023-06-22T08:17:25;7.82;;;6.88;;
61200;SDS011;47065;52.898;6.992;2023-06-22T08:19:53;7.95;;;7.15;;
61200;SDS011;47065;52.898;6.992;2023-06-22T08:22:19;7.55;;;6.40;;
61200;SDS011;47065;52.898;6.992;2023-06-22T08:24:45;11.32;;;8.07;;
61200;SDS011;47065;52.898;6.992;2023-06-22T08:27:13;7.55;;;6.85;;
61200;SDS011;47065;52.898;6.992;2023-06-22T08:29:52;11.32;;;7.72;;
61200;SDS011;47065;52.898;6.992;2023-06-22T08:32:23;7.50;;;6.55;;
61200;SDS011;47065;52.898;6.992;2023-06-22T08:34:49;10.60;;;7.40;;
61200;SDS011;47065;52.898;6.992;2023-06-22T08:37:15;10.23;;;7.50;;
61200;SDS011;47065;52.898;6.992;2023-06-22T08:39:46;8.93;;;7.20;;
61200;SDS011;47065;52.898;6.992;2023-06-22T08:42:17;8.90;;;6.95;;
61200;SDS011;47065;52.898;6.992;2023-06-22T08:44:43;8.02;;;6.95;;
61200;SDS011;47065;52.898;6.992;2023-06-22T08:47:12;6.78;;;6.07;;
61200;SDS011;47065;52.898;6.992;2023-06-22T08:49:37;7.22;;;5.57;;
61200;SDS011;47065;52.898;6.992;2023-06-22T08:52:03;8.13;;;6.90;;
61200;SDS011;47065;52.898;6.992;2023-06-22T08:54:29;7.93;;;6.50;;
61200;SDS011;47065;52.898;6.992;2023-06-22T08:56:58;9.93;;;7.32;;
61200;SDS011;47065;52.898;6.992;2023-06-22T08:59:23;7.60;;;6.75;;
61200;SDS011;47065;52.898;6.992;2023-06-22T09:01:55;8.48;;;6.03;;
61200;SDS011;47065;52.898;6.992;2023-06-22T09:04:34;7.88;;;5.82;;
61200;SDS011;47065;52.898;6.992;2023-06-22T09:07:00;6.03;;;5.50;;
61200;SDS011;47065;52.898;6.992;2023-06-22T09:09:29;7.43;;;5.97;;
61200;SDS011;47065;52.898;6.992;2023-06-22T09:11:55;6.72;;;5.70;;
61200;SDS011;47065;52.898;6.992;2023-06-22T09:14:26;5.93;;;5.40;;
61200;SDS011;47065;52.898;6.992;2023-06-22T09:16:52;6.10;;;5.50;;
61200;SDS011;47065;52.898;6.992;2023-06-22T09:19:20;6.10;;;5.57;;
61200;SDS011;47065;52.898;6.992;2023-06-22T09:21:46;6.95;;;5.97;;
61200;SDS011;47065;52.898;6.992;2023-06-22T09:24:11;6.15;;;5.47;;
61200;SDS011;47065;52.898;6.992;2023-06-22T09:26:40;11.57;;;6.28;;
61200;SDS011;47065;52.898;6.992;2023-06-22T09:29:15;7.65;;;6.00;;
61200;SDS011;47065;52.898;6.992;2023-06-22T09:31:47;6.80;;;5.65;;
61200;SDS011;47065;52.898;6.992;2023-06-22T09:34:12;7.03;;;5.85;;
61200;SDS011;47065;52.898;6.992;2023-06-22T09:36:41;7.03;;;6.30;;
61200;SDS011;47065;52.898;6.992;2023-06-22T09:39:09;10.45;;;5.50;;
61200;SDS011;47065;52.898;6.992;2023-06-22T09:41:41;5.40;;;4.90;;
61200;SDS011;47065;52.898;6.992;2023-06-22T09:44:12;6.47;;;5.88;;
61200;SDS011;47065;52.898;6.992;2023-06-22T09:46:42;5.78;;;4.82;;
61200;SDS011;47065;52.898;6.992;2023-06-22T09:49:11;6.63;;;5.75;;
61200;SDS011;47065;52.898;6.992;2023-06-22T09:51:40;8.20;;;5.80;;
61200;SDS011;47065;52.898;6.992;2023-06-22T09:54:08;8.93;;;5.65;;
61200;SDS011;47065;52.898;6.992;2023-06-22T09:56:38;7.45;;;5.85;;
61200;SDS011;47065;52.898;6.992;2023-06-22T09:59:07;8.23;;;5.60;;
61200;SDS011;47065;52.898;6.992;2023-06-22T10:01:33;6.57;;;5.80;;
61200;SDS011;47065;52.898;6.992;2023-06-22T10:04:02;6.47;;;5.90;;
61200;SDS011;47065;52.898;6.992;2023-06-22T10:06:28;7.03;;;6.38;;
61200;SDS011;47065;52.898;6.992;2023-06-22T10:08:59;8.45;;;7.45;;
61200;SDS011;47065;52.898;6.992;2023-06-22T10:11:27;6.68;;;5.95;;
61200;SDS011;47065;52.898;6.992;2023-06-22T10:13:55;7.32;;;6.63;;
61200;SDS011;47065;52.898;6.992;2023-06-22T10:16:23;7.65;;;6.03;;
61200;SDS011;47065;52.898;6.992;2023-06-22T10:18:55;9.25;;;6.70;;
61200;SDS011;47065;52.898;6.992;2023-06-22T10:21:20;6.85;;;6.18;;
61200;SDS011;47065;52.898;6.992;2023-06-22T10:23:46;9.07;;;7.60;;
61200;SDS011;47065;52.898;6.992;2023-06-22T10:26:12;7.97;;;7.22;;
61200;SDS011;47065;52.898;6.992;2023-06-22T10:28:37;9.25;;;7.07;;
61200;SDS011;47065;52.898;6.992;2023-06-22T10:33:57;9.05;;;7.25;;
61200;SDS011;47065;52.898;6.992;2023-06-22T10:36:22;11.98;;;7.57;;
61200;SDS011;47065;52.898;6.992;2023-06-22T10:38:48;9.80;;;7.53;;
61200;SDS011;47065;52.898;6.992;2023-06-22T10:41:14;9.13;;;6.72;;
61200;SDS011;47065;52.898;6.992;2023-06-22T10:43:40;8.38;;;6.88;;
61200;SDS011;47065;52.898;6.992;2023-06-22T10:46:06;8.90;;;7.75;;
61200;SDS011;47065;52.898;6.992;2023-06-22T10:48:32;11.50;;;7.55;;
61200;SDS011;47065;52.898;6.992;2023-06-22T10:50:58;7.85;;;7.00;;
61200;SDS011;47065;52.898;6.992;2023-06-22T10:53:24;10.00;;;6.40;;
61200;SDS011;47065;52.898;6.992;2023-06-22T10:55:49;13.02;;;9.27;;
61200;SDS011;47065;52.898;6.992;2023-06-22T10:58:20;7.50;;;6.25;;
61200;SDS011;47065;52.898;6.992;2023-06-22T11:00:49;9.30;;;6.68;;
61200;SDS011;47065;52.898;6.992;2023-06-22T11:03:17;15.05;;;7.53;;
61200;SDS011;47065;52.898;6.992;2023-06-22T11:05:47;10.45;;;7.53;;
61200;SDS011;47065;52.898;6.992;2023-06-22T11:08:15;7.93;;;6.27;;
61200;SDS011;47065;52.898;6.992;2023-06-22T11:10:41;7.60;;;6.63;;
61200;SDS011;47065;52.898;6.992;2023-06-22T11:13:07;7.05;;;6.35;;
61200;SDS011;47065;52.898;6.992;2023-06-22T11:15:35;8.10;;;7.28;;
61200;SDS011;47065;52.898;6.992;2023-06-22T11:18:03;9.57;;;5.55;;
61200;SDS011;47065;52.898;6.992;2023-06-22T11:20:35;7.63;;;6.82;;
61200;SDS011;47065;52.898;6.992;2023-06-22T11:23:06;7.07;;;5.97;;
61200;SDS011;47065;52.898;6.992;2023-06-22T11:25:32;9.48;;;7.40;;
61200;SDS011;47065;52.898;6.992;2023-06-22T11:28:02;9.90;;;7.32;;
61200;SDS011;47065;52.898;6.992;2023-06-22T11:30:29;9.05;;;6.47;;
61200;SDS011;47065;52.898;6.992;2023-06-22T11:32:56;6.25;;;5.50;;
61200;SDS011;47065;52.898;6.992;2023-06-22T11:35:23;7.50;;;6.68;;
61200;SDS011;47065;52.898;6.992;2023-06-22T11:37:49;10.43;;;6.68;;
61200;SDS011;47065;52.898;6.992;2023-06-22T11:40:33;8.90;;;6.75;;
61200;SDS011;47065;52.898;6.992;2023-06-22T11:43:13;8.18;;;5.60;;
61200;SDS011;47065;52.898;6.992;2023-06-22T11:46:03;8.38;;;6.97;;
61200;SDS011;47065;52.898;6.992;2023-06-22T11:48:35;8.57;;;6.28;;
61200;SDS011;47065;52.898;6.992;2023-06-22T11:51:06;8.88;;;5.90;;
61200;SDS011;47065;52.898;6.992;2023-06-22T11:53:43;6.85;;;6.13;;
61200;SDS011;47065;52.898;6.992;2023-06-22T11:56:36;6.13;;;5.38;;
61200;SDS011;47065;52.898;6.992;2023-06-22T11:59:10;8.90;;;6.30;;
61200;SDS011;47065;52.898;6.992;2023-06-22T12:02:20;7.60;;;6.90;;
61200;SDS011;47065;52.898;6.992;2023-06-22T12:07:41;8.75;;;5.20;;
61200;SDS011;47065;52.898;6.992;2023-06-22T12:10:22;8.68;;;4.53;;
61200;SDS011;47065;52.898;6.992;2023-06-22T12:12:48;9.52;;;5.10;;
61200;SDS011;47065;52.898;6.992;2023-06-22T12:15:30;4.50;;;4.10;;
61200;SDS011;47065;52.898;6.992;2023-06-22T12:17:57;4.97;;;4.25;;
61200;SDS011;47065;52.898;6.992;2023-06-22T12:20:26;5.40;;;4.43;;
61200;SDS011;47065;52.898;6.992;2023-06-22T12:22:54;4.88;;;3.72;;
61200;SDS011;47065;52.898;6.992;2023-06-22T12:25:34;4.85;;;3.55;;
61200;SDS011;47065;52.898;6.992;2023-06-22T12:31:15;4.63;;;3.67;;
61200;SDS011;47065;52.898;6.992;2023-06-22T12:33:41;3.63;;;3.33;;
61200;SDS011;47065;52.898;6.992;2023-06-22T12:36:06;4.07;;;3.67;;
61200;SDS011;47065;52.898;6.992;2023-06-22T12:38:32;4.35;;;3.72;;
61200;SDS011;47065;52.898;6.992;2023-06-22T12:40:58;5.25;;;4.13;;
61200;SDS011;47065;52.898;6.992;2023-06-22T12:43:27;5.30;;;4.45;;
61200;SDS011;47065;52.898;6.992;2023-06-22T12:45:52;6.38;;;4.47;;
61200;SDS011;47065;52.898;6.992;2023-06-22T12:48:18;6.15;;;3.95;;
61200;SDS011;47065;52.898;6.992;2023-06-22T12:50:44;5.40;;;4.93;;
61200;SDS011;47065;52.898;6.992;2023-06-22T12:53:11;5.32;;;3.90;;
61200;SDS011;47065;52.898;6.992;2023-06-22T12:55:37;5.85;;;3.95;;
61200;SDS011;47065;52.898;6.992;2023-06-22T12:58:03;5.05;;;4.35;;
61200;SDS011;47065;52.898;6.992;2023-06-22T13:00:29;5.38;;;4.45;;
61200;SDS011;47065;52.898;6.992;2023-06-22T13:02:54;7.07;;;4.53;;
61200;SDS011;47065;52.898;6.992;2023-06-22T13:05:20;6.38;;;3.83;;
61200;SDS011;47065;52.898;6.992;2023-06-22T13:07:45;5.20;;;3.60;;
61200;SDS011;47065;52.898;6.992;2023-06-22T13:10:11;5.28;;;4.53;;
61200;SDS011;47065;52.898;6.992;2023-06-22T13:12:37;5.30;;;4.35;;
61200;SDS011;47065;52.898;6.992;2023-06-22T13:15:02;4.15;;;3.75;;
61200;SDS011;47065;52.898;6.992;2023-06-22T13:17:28;5.95;;;3.25;;
61200;SDS011;47065;52.898;6.992;2023-06-22T13:19:54;5.65;;;3.63;;
61200;SDS011;47065;52.898;6.992;2023-06-22T13:24:54;6.30;;;3.47;;
61200;SDS011;47065;52.898;6.992;2023-06-22T13:27:20;3.97;;;3.58;;
61200;SDS011;47065;52.898;6.992;2023-06-22T13:29:45;4.07;;;3.67;;
61200;SDS011;47065;52.898;6.992;2023-06-22T13:32:11;5.32;;;3.72;;
61200;SDS011;47065;52.898;6.992;2023-06-22T13:34:36;3.90;;;3.50;;
61200;SDS011;47065;52.898;6.992;2023-06-22T13:37:02;4.90;;;3.75;;
61200;SDS011;47065;52.898;6.992;2023-06-22T13:39:28;3.28;;;3.03;;
61200;SDS011;47065;52.898;6.992;2023-06-22T13:41:53;3.80;;;3.25;;
61200;SDS011;47065;52.898;6.992;2023-06-22T13:44:19;4.15;;;3.78;;
61200;SDS011;47065;52.898;6.992;2023-06-22T13:46:47;7.05;;;3.97;;
61200;SDS011;47065;52.898;6.992;2023-06-22T13:49:12;8.52;;;3.42;;
61200;SDS011;47065;52.898;6.992;2023-06-22T13:51:38;3.15;;;2.85;;
61200;SDS011;47065;52.898;6.992;2023-06-22T13:54:04;6.97;;;3.72;;
61200;SDS011;47065;52.898;6.992;2023-06-22T13:56:29;4.75;;;4.30;;
61200;SDS011;47065;52.898;6.992;2023-06-22T13:58:55;4.53;;;4.13;;
61200;SDS011;47065;52.898;6.992;2023-06-22T14:01:21;7.20;;;4.32;;
61200;SDS011;47065;52.898;6.992;2023-06-22T14:03:47;9.98;;;5.07;;
61200;SDS011;47065;52.898;6.992;2023-06-22T14:06:13;6.80;;;5.50;;
61200;SDS011;47065;52.898;6.992;2023-06-22T14:08:39;5.50;;;4.95;;
61200;SDS011;47065;52.898;6.992;2023-06-22T14:11:04;5.97;;;5.47;;
61200;SDS011;47065;52.898;6.992;2023-06-22T14:13:30;6.10;;;5.43;;
61200;SDS011;47065;52.898;6.992;2023-06-22T14:15:55;6.70;;;6.05;;
61200;SDS011;47065;52.898;6.992;2023-06-22T14:18:21;7.10;;;6.07;;
61200;SDS011;47065;52.898;6.992;2023-06-22T14:20:49;7.63;;;6.85;;
61200;SDS011;47065;52.898;6.992;2023-06-22T14:23:15;10.50;;;6.38;;
61200;SDS011;47065;52.898;6.992;2023-06-22T14:25:41;6.13;;;5.45;;
61200;SDS011;47065;52.898;6.992;2023-06-22T14:28:06;6.40;;;5.80;;
61200;SDS011;47065;52.898;6.992;2023-06-22T14:30:32;8.38;;;6.90;;
61200;SDS011;47065;52.898;6.992;2023-06-22T14:32:57;8.88;;;7.40;;
61200;SDS011;47065;52.898;6.992;2023-06-22T14:35:23;7.57;;;6.70;;
61200;SDS011;47065;52.898;6.992;2023-06-22T14:37:49;7.88;;;7.15;;
61200;SDS011;47065;52.898;6.992;2023-06-22T14:40:15;9.13;;;7.10;;
61200;SDS011;47065;52.898;6.992;2023-06-22T14:42:41;10.20;;;9.20;;
61200;SDS011;47065;52.898;6.992;2023-06-22T14:45:07;8.27;;;7.47;;
61200;SDS011;47065;52.898;6.992;2023-06-22T14:47:33;9.57;;;7.95;;
61200;SDS011;47065;52.898;6.992;2023-06-22T14:49:58;11.60;;;8.75;;
61200;SDS011;47065;52.898;6.992;2023-06-22T14:52:25;13.77;;;8.68;;
61200;SDS011;47065;52.898;6.992;2023-06-22T14:54:52;10.07;;;8.20;;
61200;SDS011;47065;52.898;6.992;2023-06-22T14:57:18;8.55;;;7.47;;